Time;durP1;ratioP1;P1;durP2;ratioP2;P2;SDS_P1;SDS_P2;PMS_P1;PMS_P2;Temp;Humidity;BMP_temperature;BMP_pressure;BME280_temperature;BME280_humidity;BME280_pressure;Samples;Min_cycle;Max_cycle;Signal;HPM_P1;HPM_P2
2022/04/20 00:27:21;;;;;;;2.72;1.55;;;8.80;94.40;;;;;;5332731;22;20054;-66
2022/04/20 00:29:46;;;;;;;2.17;1.42;;;8.70;94.10;;;;;;5095766;28;20047;-69
2022/04/20 00:32:12;;;;;;;2.38;1.33;;;8.90;94.60;;;;;;5096061;28;20036;-70
2022/04/20 00:34:38;;;;;;;2.42;1.30;;;8.70;94.60;;;;;;5061299;28;20126;-70
2022/04/20 00:37:04;;;;;;;3.40;1.50;;;8.70;94.80;;;;;;5096254;28;20040;-69
2022/04/20 00:39:29;;;;;;;3.85;1.40;;;8.60;95.20;;;;;;5078240;28;20048;-70
2022/04/20 00:41:56;;;;;;;4.25;1.65;;;8.60;95.40;;;;;;5096203;28;20044;-70
2022/04/20 00:44:23;;;;;;;2.65;1.73;;;8.60;95.90;;;;;;5096118;28;20063;-70
2022/04/20 00:46:52;;;;;;;3.95;1.63;;;8.60;95.80;;;;;;5096694;28;20052;-70
2022/04/20 00:49:18;;;;;;;3.75;1.85;;;8.80;95.80;;;;;;5078210;28;20476;-70
2022/04/20 00:51:57;;;;;;;5.78;1.83;;;8.50;95.50;;;;;;5096499;28;20170;-70
2022/04/20 00:54:24;;;;;;;2.80;1.95;;;8.50;95.70;;;;;;5096547;28;20129;-70
2022/04/20 00:56:50;;;;;;;3.30;1.48;;;8.50;95.70;;;;;;5095520;28;20625;-70
2022/04/20 00:59:18;;;;;;;2.58;1.63;;;8.50;95.80;;;;;;5095410;28;20381;-70
2022/04/20 01:01:44;;;;;;;2.97;1.60;;;8.50;96.00;;;;;;5095499;28;20518;-70
2022/04/20 01:04:10;;;;;;;3.35;1.80;;;8.60;95.90;;;;;;5095813;28;20084;-70
2022/04/20 01:06:35;;;;;;;2.97;1.60;;;8.50;95.80;;;;;;5095770;28;20104;-70
2022/04/20 01:09:01;;;;;;;4.10;1.60;;;8.40;96.00;;;;;;5095642;28;20491;-70
2022/04/20 01:11:27;;;;;;;3.33;1.73;;;8.40;96.40;;;;;;5077297;28;20055;-70
2022/04/20 01:13:53;;;;;;;3.10;1.90;;;8.40;96.30;;;;;;5077575;28;20047;-70
2022/04/20 01:16:19;;;;;;;3.08;1.83;;;8.40;96.30;;;;;;5095556;28;20052;-70
2022/04/20 01:18:45;;;;;;;3.30;1.75;;;8.60;96.40;;;;;;5095423;28;20052;-70
2022/04/20 01:21:11;;;;;;;3.70;1.70;;;8.40;96.50;;;;;;5077393;28;20131;-70
2022/04/20 01:23:38;;;;;;;2.88;1.92;;;8.30;96.70;;;;;;5095387;28;20083;-70
2022/04/20 01:26:08;;;;;;;3.55;1.80;;;8.30;96.80;;;;;;5095156;28;20056;-70
2022/04/20 01:28:38;;;;;;;3.00;1.95;;;8.50;97.00;;;;;;5095911;28;20048;-70
2022/04/20 01:31:05;;;;;;;3.55;2.00;;;8.30;96.70;;;;;;5077153;28;20118;-70
2022/04/20 01:33:30;;;;;;;2.60;1.80;;;8.30;96.70;;;;;;5095155;28;20084;-70
2022/04/20 01:35:56;;;;;;;3.50;2.10;;;8.20;97.00;;;;;;5077099;28;20047;-70
2022/04/20 01:38:22;;;;;;;4.55;1.90;;;8.20;97.30;;;;;;5095132;28;20139;-70
2022/04/20 01:40:48;;;;;;;2.50;1.85;;;8.30;97.70;;;;;;5095077;28;20083;-70
2022/04/20 01:43:14;;;;;;;3.72;2.17;;;8.60;98.00;;;;;;5060822;28;20092;-70
2022/04/20 01:45:40;;;;;;;3.95;1.95;;;8.20;98.00;;;;;;5077010;28;20048;-70
2022/04/20 01:48:07;;;;;;;3.15;1.83;;;8.10;98.50;;;;;;5094946;28;20047;-70
2022/04/20 01:50:33;;;;;;;5.32;2.00;;;8.10;98.70;;;;;;5094871;28;20070;-70
2022/04/20 01:52:59;;;;;;;3.53;2.03;;;8.10;98.50;;;;;;5094778;28;20086;-70
2022/04/20 01:55:25;;;;;;;3.55;1.67;;;8.00;98.70;;;;;;5094741;28;20145;-70
2022/04/20 01:57:52;;;;;;;3.47;1.95;;;8.00;98.70;;;;;;5094296;28;20054;-70
2022/04/20 02:00:18;;;;;;;3.50;2.10;;;8.00;98.90;;;;;;5094728;28;20144;-70
2022/04/20 02:02:43;;;;;;;3.97;2.05;;;8.00;99.40;;;;;;5094655;28;20088;-70
2022/04/20 02:05:12;;;;;;;2.75;1.88;;;8.00;99.70;;;;;;5094636;28;20046;-71
2022/04/20 02:07:39;;;;;;;5.18;2.10;;;7.90;99.90;;;;;;5077108;28;20047;-70
2022/04/20 02:10:06;;;;;;;4.93;1.98;;;8.10;99.90;;;;;;5094173;28;20101;-71
2022/04/20 02:12:32;;;;;;;3.90;2.35;;;7.90;99.90;;;;;;5076411;28;20040;-70
2022/04/20 02:14:58;;;;;;;3.40;1.83;;;7.80;99.90;;;;;;5094976;28;20036;-71
2022/04/20 02:17:24;;;;;;;4.70;1.95;;;7.80;99.90;;;;;;5094360;28;20368;-70
2022/04/20 02:19:50;;;;;;;3.30;1.98;;;7.90;99.90;;;;;;5076502;28;20085;-71
2022/04/20 02:22:16;;;;;;;3.38;1.95;;;7.80;99.90;;;;;;5094405;28;20048;-70
2022/04/20 02:24:42;;;;;;;4.25;2.10;;;7.90;99.90;;;;;;5094809;28;20055;-70
2022/04/20 02:27:11;;;;;;;3.80;2.05;;;7.80;99.90;;;;;;5094524;28;20044;-71
2022/04/20 02:29:37;;;;;;;4.07;2.10;;;7.70;99.90;;;;;;5077064;28;20089;-71
2022/04/20 02:32:04;;;;;;;3.67;2.20;;;7.70;99.90;;;;;;5094125;28;20059;-70
2022/04/20 02:34:29;;;;;;;3.90;2.20;;;7.70;99.90;;;;;;5059310;28;20043;-70
2022/04/20 02:36:55;;;;;;;4.72;2.33;;;7.60;99.90;;;;;;5094648;28;20047;-69
2022/04/20 02:39:21;;;;;;;3.22;2.28;;;7.90;99.90;;;;;;5094680;28;20373;-70
2022/04/20 02:41:47;;;;;;;3.95;2.47;;;7.60;99.90;;;;;;5094085;28;20043;-70
2022/04/20 02:44:14;;;;;;;3.08;2.28;;;7.60;99.90;;;;;;5076071;28;20460;-70
2022/04/20 02:46:40;;;;;;;3.25;2.25;;;7.60;99.90;;;;;;5093986;28;20404;-70
2022/04/20 02:49:06;;;;;;;4.30;2.25;;;7.50;99.90;;;;;;5094217;28;20044;-70
2022/04/20 02:51:31;;;;;;;4.60;2.08;;;7.60;99.90;;;;;;5093857;28;20052;-69
2022/04/20 02:53:57;;;;;;;3.53;2.47;;;7.50;99.90;;;;;;5075839;28;20117;-70
2022/04/20 02:56:23;;;;;;;4.05;2.08;;;7.40;99.90;;;;;;5075802;28;20123;-70
2022/04/20 02:58:50;;;;;;;2.70;2.00;;;7.90;99.90;;;;;;5093795;28;20114;-70
2022/04/20 03:01:15;;;;;;;3.92;2.50;;;7.30;99.90;;;;;;5076110;28;20052;-70
2022/04/20 03:03:42;;;;;;;3.90;1.92;;;7.30;99.90;;;;;;5093430;28;20480;-70
2022/04/20 03:06:08;;;;;;;4.28;2.00;;;7.20;99.90;;;;;;5094114;28;20083;-70
2022/04/20 03:08:34;;;;;;;2.47;2.17;;;7.20;99.90;;;;;;5094300;28;20507;-70
2022/04/20 03:10:59;;;;;;;5.93;2.50;;;7.10;99.90;;;;;;5094435;28;20040;-70
2022/04/20 03:13:26;;;;;;;4.30;2.20;;;7.20;99.90;;;;;;5093610;28;20468;-70
2022/04/20 03:15:51;;;;;;;4.65;2.22;;;7.70;99.90;;;;;;5093881;28;20198;-70
2022/04/20 03:18:17;;;;;;;4.70;2.53;;;7.20;99.90;;;;;;5076370;28;20071;-70
2022/04/20 03:20:43;;;;;;;3.05;2.33;;;7.10;99.90;;;;;;5094155;28;20160;-69
2022/04/20 03:23:08;;;;;;;3.65;2.20;;;7.30;99.90;;;;;;5096509;28;20047;-69
2022/04/20 03:25:34;;;;;;;3.47;2.35;;;7.40;99.90;;;;;;5079913;28;20098;-69
2022/04/20 03:28:00;;;;;;;3.35;2.20;;;7.00;99.90;;;;;;5097916;28;20047;-70
2022/04/20 03:30:27;;;;;;;3.40;2.00;;;7.00;99.90;;;;;;5097583;28;20475;-70
2022/04/20 03:32:53;;;;;;;3.33;2.03;;;7.10;99.90;;;;;;5097627;28;20048;-70
2022/04/20 03:35:19;;;;;;;3.50;2.45;;;7.10;99.90;;;;;;5079909;28;20055;-69
2022/04/20 03:37:45;;;;;;;3.70;2.03;;;7.10;99.90;;;;;;5098043;28;20482;-70
2022/04/20 03:40:11;;;;;;;4.07;2.40;;;7.00;99.90;;;;;;5079301;28;20090;-70
2022/04/20 03:42:37;;;;;;;3.05;1.92;;;6.90;99.90;;;;;;5079284;28;20047;-70
2022/04/20 03:45:03;;;;;;;4.32;2.08;;;7.00;99.90;;;;;;5098128;28;20047;-71
2022/04/20 03:47:29;;;;;;;3.72;2.05;;;7.20;99.90;;;;;;5079287;28;20097;-69
2022/04/20 03:49:54;;;;;;;3.85;2.03;;;7.00;99.90;;;;;;5079202;28;20048;-69
2022/04/20 03:52:20;;;;;;;3.50;2.03;;;7.00;99.90;;;;;;5079101;28;20083;-70
2022/04/20 03:54:46;;;;;;;4.05;1.80;;;7.20;99.90;;;;;;5097155;28;20044;-70
2022/04/20 03:57:11;;;;;;;3.08;2.00;;;7.60;99.90;;;;;;5096974;28;20087;-70
2022/04/20 03:59:38;;;;;;;3.72;2.20;;;6.90;99.90;;;;;;5097037;28;20039;-70
2022/04/20 04:02:05;;;;;;;2.47;1.98;;;7.00;99.90;;;;;;5097017;28;20040;-70
2022/04/20 04:04:32;;;;;;;3.35;2.08;;;7.10;99.90;;;;;;5096956;28;20048;-69
2022/04/20 04:06:58;;;;;;;3.47;1.92;;;7.20;99.90;;;;;;5096884;28;20369;-70
2022/04/20 04:09:23;;;;;;;3.05;2.10;;;7.30;99.90;;;;;;5097116;28;20040;-70
2022/04/20 04:11:50;;;;;;;3.33;1.83;;;7.30;99.90;;;;;;5096745;28;20080;-70
2022/04/20 04:14:17;;;;;;;3.65;1.60;;;7.80;99.90;;;;;;5079763;28;20376;-70
2022/04/20 04:16:44;;;;;;;3.33;2.33;;;7.30;99.90;;;;;;5096710;28;20491;-70
2022/04/20 04:19:11;;;;;;;4.10;1.90;;;7.30;99.90;;;;;;5096344;28;20089;-70
2022/04/20 04:21:39;;;;;;;3.95;2.10;;;7.00;99.90;;;;;;5096638;28;20127;-70
2022/04/20 04:24:06;;;;;;;2.75;2.05;;;7.20;99.90;;;;;;5096576;28;20109;-70
2022/04/20 04:26:32;;;;;;;2.47;1.85;;;7.00;99.90;;;;;;5078192;28;20099;-70
2022/04/20 04:28:58;;;;;;;2.97;2.03;;;7.00;99.90;;;;;;5096216;28;20091;-70
2022/04/20 04:31:24;;;;;;;3.05;2.03;;;7.10;99.90;;;;;;5078546;28;20040;-70
2022/04/20 04:33:50;;;;;;;3.63;2.10;;;7.20;99.90;;;;;;5095654;28;20472;-69
2022/04/20 04:36:16;;;;;;;3.22;2.08;;;6.90;99.90;;;;;;5096284;28;20044;-70
2022/04/20 04:38:42;;;;;;;5.20;2.35;;;7.20;99.90;;;;;;5096878;28;20418;-70
2022/04/20 04:41:07;;;;;;;4.50;2.63;;;7.00;99.90;;;;;;5096237;28;20040;-70
2022/04/20 04:43:33;;;;;;;5.78;3.00;;;7.10;99.90;;;;;;5078129;28;20131;-70
2022/04/20 04:48:47;;;;;;;4.07;3.00;;;7.10;99.90;;;;;;5096125;28;20578;-70
2022/04/20 04:51:13;;;;;;;4.53;2.92;;;7.20;99.90;;;;;;5077655;28;20055;-70
2022/04/20 04:53:38;;;;;;;3.50;2.88;;;7.20;99.90;;;;;;5077942;28;20052;-70
2022/04/20 04:56:04;;;;;;;4.82;3.47;;;7.20;99.90;;;;;;5061280;28;20052;-69
2022/04/20 04:58:30;;;;;;;3.70;2.80;;;6.70;99.90;;;;;;5096221;28;20051;-70
2022/04/20 05:00:58;;;;;;;3.40;2.65;;;7.30;99.90;;;;;;5095886;28;20040;-70
2022/04/20 05:03:24;;;;;;;3.50;2.50;;;7.00;99.90;;;;;;5095783;28;20445;-70
2022/04/20 05:05:50;;;;;;;4.22;2.97;;;7.30;99.90;;;;;;5095807;28;20044;-70
2022/04/20 05:08:16;;;;;;;4.38;2.58;;;6.80;99.90;;;;;;5095737;28;20127;-70
2022/04/20 05:10:42;;;;;;;4.80;2.50;;;7.00;99.90;;;;;;5061012;28;20197;-70
2022/04/20 05:13:08;;;;;;;3.75;2.40;;;6.80;99.90;;;;;;5078111;28;20036;-70
2022/04/20 05:15:34;;;;;;;3.90;2.72;;;6.90;99.90;;;;;;5095548;28;20048;-69
2022/04/20 05:18:00;;;;;;;4.47;3.03;;;6.70;99.90;;;;;;5078544;28;20047;-69
2022/04/20 05:20:26;;;;;;;4.45;2.58;;;7.00;99.90;;;;;;5095549;28;20044;-70
2022/04/20 05:22:52;;;;;;;3.20;2.00;;;6.80;99.90;;;;;;5077678;28;20560;-70
2022/04/20 05:25:18;;;;;;;5.47;2.88;;;7.10;99.90;;;;;;5078268;28;20087;-70
2022/04/20 05:27:44;;;;;;;3.90;2.33;;;6.90;99.90;;;;;;5096317;28;20056;-70
2022/04/20 05:30:14;;;;;;;5.05;2.67;;;7.30;99.90;;;;;;5095858;28;20044;-70
2022/04/20 05:32:41;;;;;;;5.85;2.72;;;6.90;99.90;;;;;;5077437;28;20454;-70
2022/04/20 05:35:07;;;;;;;2.72;2.08;;;7.20;99.90;;;;;;5095023;28;20056;-70
2022/04/20 05:43:01;;;;;;;3.53;2.80;;;7.00;99.90;;;;;;5094880;28;20048;-69
2022/04/20 05:45:27;;;;;;;3.50;2.45;;;7.10;99.90;;;;;;5060612;28;20052;-69
2022/04/20 05:47:53;;;;;;;5.97;3.00;;;7.10;99.90;;;;;;5044210;28;20052;-70
2022/04/20 05:50:18;;;;;;;3.72;2.53;;;7.50;99.90;;;;;;5095507;28;20046;-69
2022/04/20 05:52:44;;;;;;;3.42;2.40;;;7.20;99.90;;;;;;5094717;28;20087;-70
2022/04/20 05:55:10;;;;;;;4.88;2.40;;;7.60;99.90;;;;;;5076527;28;20071;-69
2022/04/20 05:57:36;;;;;;;3.05;2.58;;;7.50;99.90;;;;;;5094657;28;20043;-70
2022/04/20 06:00:03;;;;;;;3.45;2.55;;;7.40;99.90;;;;;;5077099;28;20108;-69
2022/04/20 06:02:32;;;;;;;3.92;2.60;;;7.30;99.90;;;;;;5077305;28;20131;-69
2022/04/20 06:05:00;;;;;;;5.45;3.15;;;7.30;99.90;;;;;;5094909;28;20052;-70
2022/04/20 06:07:25;;;;;;;4.55;2.78;;;7.60;99.90;;;;;;5095114;28;20052;-69
2022/04/20 06:09:51;;;;;;;4.75;2.95;;;7.70;99.90;;;;;;5095014;28;20040;-70
2022/04/20 06:12:17;;;;;;;6.05;2.80;;;7.40;99.90;;;;;;5094523;28;20112;-70
2022/04/20 06:14:42;;;;;;;5.53;3.03;;;7.60;99.90;;;;;;5094578;28;20109;-69
2022/04/20 06:17:08;;;;;;;2.85;2.22;;;7.50;99.90;;;;;;5094990;28;20365;-69
2022/04/20 06:19:34;;;;;;;4.03;2.47;;;7.80;99.90;;;;;;5094614;28;20050;-70
2022/04/20 06:22:00;;;;;;;5.00;2.40;;;7.70;99.90;;;;;;5076902;28;20079;-69
2022/04/20 06:24:26;;;;;;;3.45;2.17;;;7.70;99.90;;;;;;5094340;28;20080;-69
2022/04/20 06:26:51;;;;;;;4.10;2.58;;;7.80;99.90;;;;;;5093982;28;20063;-69
2022/04/20 06:29:17;;;;;;;3.47;2.58;;;7.80;99.90;;;;;;5094199;28;20052;-69
2022/04/20 06:31:45;;;;;;;3.53;2.10;;;8.10;99.90;;;;;;5094058;28;20066;-69
2022/04/20 06:34:11;;;;;;;4.10;2.10;;;8.10;99.90;;;;;;5094940;28;20044;-69
2022/04/20 06:36:37;;;;;;;4.47;2.53;;;8.00;99.90;;;;;;5094348;28;20396;-70
2022/04/20 06:39:03;;;;;;;3.20;2.22;;;8.10;99.90;;;;;;5076481;28;20052;-70
2022/04/20 06:41:29;;;;;;;3.75;2.00;;;8.30;99.90;;;;;;5094051;28;20123;-69
2022/04/20 06:43:56;;;;;;;4.57;2.20;;;8.40;99.90;;;;;;5094233;28;20095;-69
2022/04/20 06:46:21;;;;;;;3.70;2.50;;;8.20;99.90;;;;;;5094000;28;20504;-69
2022/04/20 06:48:47;;;;;;;3.45;2.00;;;8.50;99.90;;;;;;5075794;28;20080;-69
2022/04/20 06:51:13;;;;;;;6.57;2.40;;;8.50;99.90;;;;;;5094603;28;20123;-70
2022/04/20 06:59:27;;;;;;;3.97;1.80;;;8.70;99.90;;;;;;5031379;28;20049;-69
2022/04/20 07:01:52;;;;;;;4.47;2.20;;;8.80;99.90;;;;;;5067650;28;20056;-69
2022/04/20 07:04:18;;;;;;;4.97;2.28;;;8.90;99.90;;;;;;5075715;28;20055;-69
2022/04/20 07:06:44;;;;;;;4.38;2.45;;;8.60;99.90;;;;;;5076171;28;20472;-69
2022/04/20 07:09:09;;;;;;;2.67;2.15;;;8.70;99.90;;;;;;5059012;28;20048;-69
2022/04/20 07:11:35;;;;;;;4.00;2.20;;;8.70;99.90;;;;;;5076212;28;20130;-69
2022/04/20 07:14:01;;;;;;;2.90;2.00;;;8.80;99.90;;;;;;5093612;28;20044;-69
2022/04/20 07:16:28;;;;;;;3.78;2.33;;;9.10;99.90;;;;;;5094187;28;20092;-68
2022/04/20 07:18:54;;;;;;;3.15;2.10;;;9.30;99.90;;;;;;5075786;28;20044;-69
2022/04/20 07:21:19;;;;;;;4.03;1.88;;;9.00;99.90;;;;;;5093488;28;20063;-69
2022/04/20 07:23:45;;;;;;;4.45;2.10;;;9.10;99.90;;;;;;5093444;28;20040;-69
2022/04/20 07:26:11;;;;;;;3.92;2.13;;;9.10;99.90;;;;;;5075476;28;20063;-68
2022/04/20 07:28:37;;;;;;;3.25;2.00;;;9.50;99.90;;;;;;5093469;28;20048;-69
2022/04/20 07:31:04;;;;;;;3.13;1.63;;;9.10;99.90;;;;;;5093440;28;20040;-69
2022/04/20 07:33:30;;;;;;;5.63;2.15;;;9.30;99.90;;;;;;5064828;28;20052;-69
2022/04/20 07:35:56;;;;;;;3.53;1.83;;;9.30;99.90;;;;;;5076896;28;20059;-69
2022/04/20 07:38:25;;;;;;;3.78;1.83;;;9.30;99.90;;;;;;5075477;28;20401;-69
2022/04/20 07:40:51;;;;;;;4.35;2.80;;;9.40;99.90;;;;;;5076091;28;20048;-70
2022/04/20 07:43:17;;;;;;;3.20;1.80;;;9.60;99.90;;;;;;5094010;28;20058;-68
2022/04/20 07:45:43;;;;;;;4.43;1.90;;;9.70;99.90;;;;;;5093093;28;20500;-70
2022/04/20 07:48:08;;;;;;;3.70;1.77;;;9.70;99.80;;;;;;5075781;28;20044;-68
2022/04/20 07:50:35;;;;;;;3.28;1.63;;;9.80;99.10;;;;;;5076207;28;20108;-70
2022/04/20 07:53:01;;;;;;;2.85;1.70;;;10.30;98.90;;;;;;5093283;28;20381;-69
2022/04/20 07:55:29;;;;;;;2.90;1.73;;;9.80;98.50;;;;;;5093309;28;20048;-70
2022/04/20 07:58:00;;;;;;;2.72;1.67;;;9.80;98.20;;;;;;5093387;28;20507;-69
2022/04/20 08:00:27;;;;;;;2.55;1.60;;;10.10;98.00;;;;;;5093252;28;20502;-69
2022/04/20 08:03:13;;;;;;;2.58;1.70;;;10.00;97.20;;;;;;5092828;28;20488;-70
2022/04/20 08:05:40;;;;;;;2.80;1.70;;;10.00;97.40;;;;;;5093239;28;20051;-68
2022/04/20 08:08:07;;;;;;;4.18;1.50;;;10.10;97.10;;;;;;5093183;28;20079;-69
2022/04/20 08:10:33;;;;;;;2.13;1.40;;;10.20;96.50;;;;;;5095610;28;20044;-69
2022/04/20 08:12:58;;;;;;;1.60;1.13;;;10.20;96.50;;;;;;5096818;28;20067;-68
2022/04/20 08:15:24;;;;;;;3.17;1.50;;;10.30;96.10;;;;;;5079705;28;20044;-69
2022/04/20 08:17:50;;;;;;;1.88;1.17;;;10.40;94.70;;;;;;5096704;28;20074;-68
2022/04/20 08:20:16;;;;;;;1.85;1.00;;;10.40;94.00;;;;;;5096671;28;20032;-68
2022/04/20 08:22:43;;;;;;;3.08;1.20;;;10.50;93.70;;;;;;5062184;28;20105;-69
2022/04/20 08:25:11;;;;;;;1.70;0.90;;;10.60;93.10;;;;;;5096491;28;20090;-69
2022/04/20 08:27:38;;;;;;;3.50;1.00;;;10.70;93.00;;;;;;5096170;28;20056;-68
2022/04/20 08:30:05;;;;;;;2.53;0.77;;;10.80;92.50;;;;;;5078301;28;20040;-69
2022/04/20 08:32:31;;;;;;;1.25;0.60;;;10.80;91.50;;;;;;5096427;28;20056;-69
2022/04/20 08:34:57;;;;;;;2.45;0.90;;;10.90;90.50;;;;;;5096424;28;20055;-68
2022/04/20 08:37:23;;;;;;;2.65;0.88;;;11.00;90.30;;;;;;5096878;28;20035;-68
2022/04/20 08:39:49;;;;;;;1.48;0.90;;;11.00;90.10;;;;;;5096907;28;20047;-68
2022/04/20 08:42:19;;;;;;;1.67;1.00;;;11.10;89.60;;;;;;5095815;28;20044;-67
2022/04/20 08:44:49;;;;;;;1.52;0.93;;;11.20;89.60;;;;;;5077953;28;20383;-67
2022/04/20 08:47:21;;;;;;;3.60;1.33;;;11.30;88.90;;;;;;5095375;28;20044;-68
2022/04/20 08:49:49;;;;;;;1.63;0.90;;;11.40;88.40;;;;;;5077226;28;20044;-67
2022/04/20 08:55:04;;;;;;;1.48;0.80;;;11.50;85.10;;;;;;5095388;28;20058;-67
2022/04/20 08:57:31;;;;;;;1.70;1.00;;;11.60;83.90;;;;;;5095194;28;20108;-68
2022/04/20 08:59:58;;;;;;;2.15;0.90;;;11.60;82.60;;;;;;5095429;28;20079;-67
2022/04/20 09:02:28;;;;;;;1.90;0.93;;;11.70;82.20;;;;;;5095279;28;20048;-68
2022/04/20 09:04:55;;;;;;;1.15;0.80;;;11.70;82.60;;;;;;5094762;28;20136;-68
2022/04/20 09:07:22;;;;;;;2.13;1.10;;;11.80;81.50;;;;;;5095236;28;20048;-67
2022/04/20 09:09:47;;;;;;;3.45;0.88;;;11.80;80.30;;;;;;5076885;28;20044;-66
2022/04/20 09:12:19;;;;;;;1.33;0.85;;;11.80;80.30;;;;;;5094916;28;20062;-67
2022/04/20 09:14:50;;;;;;;2.00;1.10;;;11.90;79.10;;;;;;5076926;28;20040;-67
2022/04/20 09:17:17;;;;;;;1.70;1.00;;;11.90;79.20;;;;;;5095000;28;20047;-68
2022/04/20 09:19:45;;;;;;;1.73;0.90;;;12.00;79.00;;;;;;5095090;28;20054;-67
2022/04/20 09:22:18;;;;;;;1.75;0.80;;;12.00;79.00;;;;;;5094423;28;20530;-68
2022/04/20 09:25:17;;;;;;;1.58;0.90;;;12.10;78.80;;;;;;5094793;28;20040;-67
2022/04/20 09:27:43;;;;;;;1.40;0.85;;;12.20;78.30;;;;;;5049836;28;20048;-68
2022/04/20 09:30:14;;;;;;;1.42;0.70;;;12.20;77.20;;;;;;5076063;28;20537;-68
2022/04/20 09:32:42;;;;;;;2.60;1.00;;;12.30;75.10;;;;;;5093943;28;20161;-68
2022/04/20 09:35:19;;;;;;;1.42;0.90;;;12.40;74.70;;;;;;5076185;28;20048;-66
2022/04/20 09:37:45;;;;;;;1.52;0.80;;;12.40;74.30;;;;;;5094785;28;20051;-68
2022/04/20 09:40:13;;;;;;;0.95;0.80;;;12.50;74.60;;;;;;5094345;28;20047;-68
2022/04/20 09:42:58;;;;;;;1.52;0.90;;;12.50;74.20;;;;;;5075931;28;20218;-68
2022/04/20 09:45:23;;;;;;;0.80;0.60;;;12.60;73.60;;;;;;5094346;28;20047;-68
2022/04/20 09:50:34;;;;;;;1.15;0.70;;;12.70;70.70;;;;;;5093964;28;20131;-67
2022/04/20 09:53:07;;;;;;;0.95;0.60;;;12.70;70.70;;;;;;5094209;28;20079;-68
2022/04/20 09:55:34;;;;;;;1.10;0.65;;;12.60;70.80;;;;;;5094645;28;20138;-67
2022/04/20 09:58:18;;;;;;;1.35;0.77;;;12.80;69.90;;;;;;5093530;28;20088;-68
2022/04/20 10:00:52;;;;;;;1.35;0.70;;;12.90;69.80;;;;;;5093808;28;20036;-68
2022/04/20 10:03:28;;;;;;;1.42;0.77;;;13.00;68.90;;;;;;5075785;28;20048;-66
2022/04/20 10:05:55;;;;;;;3.35;0.82;;;13.00;68.40;;;;;;5075672;28;20054;-67
2022/04/20 10:08:22;;;;;;;0.60;0.60;;;13.00;69.00;;;;;;5059481;28;20059;-67
2022/04/20 10:10:48;;;;;;;0.95;0.60;;;13.10;69.00;;;;;;5075870;28;20077;-67
2022/04/20 10:13:15;;;;;;;4.88;0.60;;;13.20;66.90;;;;;;5093256;28;20052;-67
2022/04/20 10:18:29;;;;;;;1.38;0.70;;;13.30;66.30;;;;;;5093611;28;20134;-68
2022/04/20 10:20:57;;;;;;;1.65;0.70;;;13.30;66.60;;;;;;5093454;28;20102;-69
2022/04/20 10:23:24;;;;;;;1.77;0.60;;;13.40;66.50;;;;;;5074814;28;20123;-68
2022/04/20 10:25:52;;;;;;;0.63;0.52;;;13.40;65.60;;;;;;5093910;28;20109;-67
2022/04/20 10:28:33;;;;;;;1.40;0.80;;;13.40;64.10;;;;;;5094533;28;20048;-68
2022/04/20 10:31:20;;;;;;;1.35;0.60;;;13.50;63.70;;;;;;5095345;28;20059;-69
2022/04/20 10:33:47;;;;;;;1.13;0.60;;;13.50;64.50;;;;;;5096181;28;20047;-69
2022/04/20 10:36:16;;;;;;;1.55;0.63;;;13.60;64.30;;;;;;5076363;28;20094;-69
2022/04/20 10:38:44;;;;;;;1.05;0.60;;;13.70;64.00;;;;;;5094458;28;20055;-69
2022/04/20 10:41:17;;;;;;;0.82;0.50;;;13.70;63.40;;;;;;5094139;28;20075;-69
2022/04/20 10:43:43;;;;;;;0.52;0.52;;;13.80;62.70;;;;;;5093841;28;20510;-69
2022/04/20 10:46:16;;;;;;;1.63;0.52;;;13.80;63.00;;;;;;5094074;28;20396;-69
2022/04/20 10:49:00;;;;;;;0.75;0.50;;;13.80;62.30;;;;;;5094341;28;20056;-69
2022/04/20 10:51:46;;;;;;;0.60;0.47;;;13.90;63.40;;;;;;5093695;28;20472;-69
2022/04/20 10:54:21;;;;;;;1.13;0.60;;;13.90;63.30;;;;;;5076282;28;20135;-69
2022/04/20 10:56:48;;;;;;;0.90;0.45;;;14.00;62.20;;;;;;5093831;28;20488;-68
2022/04/20 10:59:14;;;;;;;0.90;0.50;;;14.10;62.00;;;;;;5075845;28;20054;-69
2022/04/20 11:02:07;;;;;;;1.48;0.60;;;14.10;61.60;;;;;;5093885;28;20040;-69
2022/04/20 11:04:48;;;;;;;0.63;0.50;;;14.20;61.90;;;;;;5091287;28;20063;-69
2022/04/20 11:07:18;;;;;;;1.17;0.45;;;14.20;62.70;;;;;;5094071;28;20479;-69
2022/04/20 11:09:48;;;;;;;2.35;0.60;;;14.20;62.10;;;;;;5094089;28;20044;-68
2022/04/20 11:18:42;;;;;;;0.98;0.50;;;14.50;61.70;;;;;;5093802;28;20127;-68
2022/04/20 11:21:09;;;;;;;0.40;0.40;;;14.50;61.80;;;;;;5094039;28;20036;-68
2022/04/20 11:23:51;;;;;;;1.10;0.47;;;14.50;61.90;;;;;;5093672;28;20119;-68
2022/04/20 11:26:41;;;;;;;0.55;0.47;;;14.60;62.50;;;;;;5075354;28;20056;-68
2022/04/20 11:29:13;;;;;;;0.95;0.45;;;14.60;63.50;;;;;;5051486;28;20054;-68
2022/04/20 11:31:45;;;;;;;0.52;0.40;;;14.70;62.60;;;;;;5093547;28;20074;-69
2022/04/20 11:34:11;;;;;;;1.00;0.50;;;14.80;62.90;;;;;;5093931;28;20044;-68
2022/04/20 11:36:40;;;;;;;1.05;0.55;;;14.80;62.90;;;;;;5094062;28;20088;-67
2022/04/20 11:39:09;;;;;;;0.95;0.50;;;14.90;63.30;;;;;;5093515;28;20050;-67
2022/04/20 11:41:35;;;;;;;0.60;0.50;;;14.90;63.50;;;;;;5093484;28;20097;-67
2022/04/20 11:44:02;;;;;;;0.80;0.57;;;15.00;62.30;;;;;;5095884;28;20048;-67
2022/04/20 11:46:28;;;;;;;0.63;0.50;;;15.00;61.50;;;;;;5098585;28;20067;-67
2022/04/20 11:48:57;;;;;;;1.23;0.50;;;15.00;61.50;;;;;;5079323;28;20040;-67
2022/04/20 11:51:28;;;;;;;1.08;0.60;;;15.00;61.40;;;;;;5097235;28;20040;-67
2022/04/20 11:53:55;;;;;;;1.05;0.60;;;15.10;61.10;;;;;;5079641;28;20048;-67
2022/04/20 11:56:37;;;;;;;0.85;0.57;;;15.10;61.50;;;;;;5097815;28;20091;-67
2022/04/20 11:59:06;;;;;;;1.38;0.50;;;15.20;61.90;;;;;;5097030;28;20100;-68
2022/04/20 12:01:33;;;;;;;0.75;0.50;;;15.20;61.40;;;;;;5097183;28;20047;-68
2022/04/20 12:04:04;;;;;;;1.40;0.50;;;15.20;61.70;;;;;;5078923;28;20051;-67
2022/04/20 12:06:30;;;;;;;0.88;0.50;;;15.20;61.60;;;;;;5079506;28;20049;-67
2022/04/20 12:08:56;;;;;;;0.73;0.60;;;15.30;61.90;;;;;;5096987;28;20048;-67
2022/04/20 12:11:22;;;;;;;0.60;0.40;;;15.40;61.00;;;;;;5062226;28;20054;-67
2022/04/20 12:13:54;;;;;;;1.15;0.60;;;15.40;61.70;;;;;;5097485;28;20048;-67
2022/04/20 12:16:23;;;;;;;2.08;0.60;;;15.40;61.70;;;;;;5079486;28;20044;-67
2022/04/20 12:18:49;;;;;;;1.00;0.60;;;15.50;61.10;;;;;;5096818;28;20044;-67
2022/04/20 12:21:40;;;;;;;2.47;0.90;;;15.50;61.40;;;;;;5096753;28;20084;-67
2022/04/20 12:24:11;;;;;;;0.90;0.68;;;15.50;62.30;;;;;;5078848;28;20365;-67
2022/04/20 12:26:41;;;;;;;1.45;0.75;;;15.50;61.50;;;;;;5074986;28;20060;-67
2022/04/20 12:29:09;;;;;;;1.90;1.10;;;15.60;61.90;;;;;;5076576;28;20051;-67
2022/04/20 12:31:38;;;;;;;1.48;0.70;;;15.60;62.20;;;;;;5076231;28;20040;-67
2022/04/20 12:34:06;;;;;;;2.15;0.70;;;15.60;61.90;;;;;;5076217;28;20048;-67
2022/04/20 12:37:12;;;;;;;5.70;0.90;;;15.60;61.70;;;;;;5076558;28;20469;-67
2022/04/20 12:39:44;;;;;;;1.30;0.82;;;15.70;61.90;;;;;;5076087;28;20056;-67
2022/04/20 12:42:10;;;;;;;1.15;0.73;;;15.70;62.60;;;;;;5074732;28;20535;-66
2022/04/20 12:44:37;;;;;;;1.15;0.80;;;15.70;62.30;;;;;;5076085;28;20463;-67
2022/04/20 12:47:11;;;;;;;2.25;0.80;;;15.80;62.20;;;;;;5076666;28;20059;-66
2022/04/20 12:49:38;;;;;;;2.83;0.80;;;15.80;62.00;;;;;;5076075;28;20052;-67
2022/04/20 12:52:18;;;;;;;3.35;1.20;;;15.80;62.00;;;;;;5075128;28;20040;-67
2022/04/20 12:54:58;;;;;;;1.40;1.00;;;15.80;62.50;;;;;;5075758;28;20045;-67
2022/04/20 13:03:09;;;;;;;1.73;1.52;;;15.90;62.70;;;;;;5076386;28;20059;-67
2022/04/20 13:05:37;;;;;;;5.35;1.58;;;16.00;62.80;;;;;;5076262;28;20036;-67
2022/04/20 13:08:04;;;;;;;3.10;1.55;;;16.00;63.00;;;;;;5076190;28;20044;-67
2022/04/20 13:10:30;;;;;;;2.53;1.52;;;15.90;63.30;;;;;;5074623;28;20041;-66
2022/04/20 13:12:57;;;;;;;3.47;1.85;;;15.90;64.00;;;;;;5074598;28;20106;-67
2022/04/20 13:15:24;;;;;;;2.03;1.40;;;15.90;63.60;;;;;;5075472;28;20091;-67
2022/04/20 13:17:51;;;;;;;1.75;1.58;;;15.90;63.60;;;;;;5075508;28;20056;-67
2022/04/20 13:20:18;;;;;;;2.15;1.80;;;15.90;64.10;;;;;;5074798;28;20086;-66
2022/04/20 13:22:44;;;;;;;2.67;1.70;;;15.90;64.20;;;;;;5073855;28;20599;-67
2022/04/20 13:27:55;;;;;;;2.42;2.00;;;15.90;63.90;;;;;;5074226;28;20048;-66
2022/04/20 13:30:29;;;;;;;2.42;1.95;;;15.90;64.00;;;;;;5075410;28;20376;-67
2022/04/20 13:32:56;;;;;;;4.18;2.13;;;15.90;63.90;;;;;;5073929;28;20053;-67
2022/04/20 13:35:23;;;;;;;2.15;1.60;;;15.90;64.50;;;;;;5074373;28;20078;-67
2022/04/20 13:37:49;;;;;;;2.45;2.00;;;15.90;64.00;;;;;;5073796;28;20076;-66
2022/04/20 13:40:16;;;;;;;2.55;2.10;;;15.90;63.80;;;;;;5074976;28;20052;-66
2022/04/20 13:42:42;;;;;;;2.50;1.83;;;15.90;64.00;;;;;;5073671;28;20135;-66
2022/04/20 13:45:08;;;;;;;2.33;1.70;;;15.90;64.20;;;;;;5075761;28;20044;-67
2022/04/20 13:47:34;;;;;;;2.75;1.75;;;15.90;65.00;;;;;;5075385;28;20565;-67
2022/04/20 13:50:00;;;;;;;2.15;1.98;;;16.00;64.60;;;;;;5074663;28;20048;-67
2022/04/20 13:52:26;;;;;;;2.75;1.90;;;16.00;64.10;;;;;;5074740;28;20044;-67
2022/04/20 13:54:53;;;;;;;3.08;2.20;;;16.00;63.80;;;;;;5073746;28;20201;-67
2022/04/20 13:57:20;;;;;;;2.10;1.77;;;16.00;63.90;;;;;;5073289;28;20080;-67
2022/04/20 13:59:46;;;;;;;5.00;2.10;;;16.00;63.30;;;;;;5073427;28;20049;-66